sensor_id;sensor_type;location;lat;lon;timestamp;temperature;humidity
15676;DHT22;7938;47.666;9.434;2023-01-29T05:02:33;-0.40;99.90
15676;DHT22;7938;47.666;9.434;2023-01-29T05:05:02;-0.20;99.90
15676;DHT22;7938;47.666;9.434;2023-01-29T05:07:30;-0.10;99.90
15676;DHT22;7938;47.666;9.434;2023-01-29T05:09:58;-0.20;99.90
15676;DHT22;7938;47.666;9.434;2023-01-29T05:12:28;-0.40;99.90
15676;DHT22;7938;47.666;9.434;2023-01-29T05:14:59;-0.50;99.90
15676;DHT22;7938;47.666;9.434;2023-01-29T05:17:27;-0.50;99.90
15676;DHT22;7938;47.666;9.434;2023-01-29T05:19:56;-0.60;99.90
15676;DHT22;7938;47.666;9.434;2023-01-29T05:22:23;-0.60;99.90
15676;DHT22;7938;47.666;9.434;2023-01-29T05:24:51;-0.70;99.90
15676;DHT22;7938;47.666;9.434;2023-01-29T05:27:20;-0.70;99.90
15676;DHT22;7938;47.666;9.434;2023-01-29T05:30:06;-0.70;99.90
15676;DHT22;7938;47.666;9.434;2023-01-29T05:32:34;-0.70;99.90
15676;DHT22;7938;47.666;9.434;2023-01-29T05:35:03;-0.70;99.90
15676;DHT22;7938;47.666;9.434;2023-01-29T05:37:30;-0.80;99.90
15676;DHT22;7938;47.666;9.434;2023-01-29T05:39:57;-0.80;99.90
15676;DHT22;7938;47.666;9.434;2023-01-29T05:42:24;-0.80;99.90
15676;DHT22;7938;47.666;9.434;2023-01-29T05:44:51;-0.80;99.90
15676;DHT22;7938;47.666;9.434;2023-01-29T05:47:18;-0.90;99.90
15676;DHT22;7938;47.666;9.434;2023-01-29T05:49:46;-0.80;99.90
15676;DHT22;7938;47.666;9.434;2023-01-29T05:52:14;-0.80;99.90
15676;DHT22;7938;47.666;9.434;2023-01-29T05:54:41;-0.80;99.90
15676;DHT22;7938;47.666;9.434;2023-01-29T05:57:08;-0.70;99.90
15676;DHT22;7938;47.666;9.434;2023-01-29T05:59:35;-0.60;99.90
15676;DHT22;7938;47.666;9.434;2023-01-29T06:02:02;-0.50;99.90
15676;DHT22;7938;47.666;9.434;2023-01-29T06:04:28;-0.50;99.90
15676;DHT22;7938;47.666;9.434;2023-01-29T06:06:55;-0.50;99.90
15676;DHT22;7938;47.666;9.434;2023-01-29T06:09:23;-0.40;99.90
15676;DHT22;7938;47.666;9.434;2023-01-29T06:11:50;-0.40;99.90
15676;DHT22;7938;47.666;9.434;2023-01-29T06:14:17;-0.30;99.90
15676;DHT22;7938;47.666;9.434;2023-01-29T06:16:44;-0.30;99.90
15676;DHT22;7938;47.666;9.434;2023-01-29T06:19:11;-0.20;99.90
15676;DHT22;7938;47.666;9.434;2023-01-29T06:21:38;-0.20;99.90
15676;DHT22;7938;47.666;9.434;2023-01-29T06:24:05;-0.20;99.90
15676;DHT22;7938;47.666;9.434;2023-01-29T06:26:34;-0.10;99.90
15676;DHT22;7938;47.666;9.434;2023-01-29T06:29:01;-0.20;99.90
15676;DHT22;7938;47.666;9.434;2023-01-29T06:31:27;-0.20;99.90
15676;DHT22;7938;47.666;9.434;2023-01-29T06:33:54;-0.20;99.90
15676;DHT22;7938;47.666;9.434;2023-01-29T06:36:21;-0.30;99.90
15676;DHT22;7938;47.666;9.434;2023-01-29T06:38:48;-0.30;99.90
15676;DHT22;7938;47.666;9.434;2023-01-29T06:41:17;-0.40;99.90
15676;DHT22;7938;47.666;9.434;2023-01-29T06:43:46;-0.40;99.90
15676;DHT22;7938;47.666;9.434;2023-01-29T06:46:13;-0.50;99.90
15676;DHT22;7938;47.666;9.434;2023-01-29T06:48:40;-0.50;99.90
15676;DHT22;7938;47.666;9.434;2023-01-29T06:51:08;-0.50;99.90
15676;DHT22;7938;47.666;9.434;2023-01-29T06:53:36;-0.50;99.90
15676;DHT22;7938;47.666;9.434;2023-01-29T06:56:04;-0.50;99.90
15676;DHT22;7938;47.666;9.434;2023-01-29T06:58:31;-0.50;99.90
15676;DHT22;7938;47.666;9.434;2023-01-29T07:01:04;0.00;99.90
15676;DHT22;7938;47.666;9.434;2023-01-29T07:03:31;-0.50;99.90
15676;DHT22;7938;47.666;9.434;2023-01-29T07:05:58;-0.40;99.90
15676;DHT22;7938;47.666;9.434;2023-01-29T07:08:25;-0.40;99.90
15676;DHT22;7938;47.666;9.434;2023-01-29T07:10:53;-0.40;99.90
15676;DHT22;7938;47.666;9.434;2023-01-29T07:13:23;-0.40;99.90
15676;DHT22;7938;47.666;9.434;2023-01-29T07:15:50;-0.40;99.90
15676;DHT22;7938;47.666;9.434;2023-01-29T07:18:19;-0.40;99.90
15676;DHT22;7938;47.666;9.434;2023-01-29T07:20:45;-0.10;99.90
15676;DHT22;7938;47.666;9.434;2023-01-29T07:23:13;-0.20;99.90
15676;DHT22;7938;47.666;9.434;2023-01-29T07:25:40;-0.30;99.90
15676;DHT22;7938;47.666;9.434;2023-01-29T07:28:07;-0.30;99.90
15676;DHT22;7938;47.666;9.434;2023-01-29T07:30:34;-0.50;99.90
15676;DHT22;7938;47.666;9.434;2023-01-29T07:33:01;-0.50;99.90
15676;DHT22;7938;47.666;9.434;2023-01-29T07:35:30;-0.50;99.90
15676;DHT22;7938;47.666;9.434;2023-01-29T07:37:58;-0.40;99.90
15676;DHT22;7938;47.666;9.434;2023-01-29T07:40:25;-0.40;99.90
15676;DHT22;7938;47.666;9.434;2023-01-29T07:42:56;-0.40;99.90
15676;DHT22;7938;47.666;9.434;2023-01-29T07:45:23;-0.40;99.90
15676;DHT22;7938;47.666;9.434;2023-01-29T07:47:51;-0.40;99.90
15676;DHT22;7938;47.666;9.434;2023-01-29T07:50:19;-0.40;99.90
15676;DHT22;7938;47.666;9.434;2023-01-29T07:52:47;-0.40;99.90
15676;DHT22;7938;47.666;9.434;2023-01-29T07:55:15;-0.40;99.90
15676;DHT22;7938;47.666;9.434;2023-01-29T07:57:42;-0.20;99.90
15676;DHT22;7938;47.666;9.434;2023-01-29T08:00:10;-0.20;99.90
15676;DHT22;7938;47.666;9.434;2023-01-29T08:02:37;-0.10;99.90
15676;DHT22;7938;47.666;9.434;2023-01-29T08:05:04;-0.10;99.90
15676;DHT22;7938;47.666;9.434;2023-01-29T08:07:31;0.00;99.90
15676;DHT22;7938;47.666;9.434;2023-01-29T08:09:59;0.00;99.90
15676;DHT22;7938;47.666;9.434;2023-01-29T08:12:26;0.10;99.90
15676;DHT22;7938;47.666;9.434;2023-01-29T08:14:53;0.10;99.90
15676;DHT22;7938;47.666;9.434;2023-01-29T08:17:20;0.20;99.90
15676;DHT22;7938;47.666;9.434;2023-01-29T08:19:47;0.30;99.90
15676;DHT22;7938;47.666;9.434;2023-01-29T08:22:14;0.50;99.90
15676;DHT22;7938;47.666;9.434;2023-01-29T08:24:42;0.60;99.90
15676;DHT22;7938;47.666;9.434;2023-01-29T08:27:10;0.70;99.90
15676;DHT22;7938;47.666;9.434;2023-01-29T08:29:37;0.80;99.90
15676;DHT22;7938;47.666;9.434;2023-01-29T08:32:04;0.80;99.90
15676;DHT22;7938;47.666;9.434;2023-01-29T08:34:31;0.80;99.90
15676;DHT22;7938;47.666;9.434;2023-01-29T08:36:58;0.90;99.90
15676;DHT22;7938;47.666;9.434;2023-01-29T08:39:25;0.90;99.90
15676;DHT22;7938;47.666;9.434;2023-01-29T08:41:52;1.10;99.90
15676;DHT22;7938;47.666;9.434;2023-01-29T08:44:20;1.00;99.90
15676;DHT22;7938;47.666;9.434;2023-01-29T08:46:47;1.20;99.90
15676;DHT22;7938;47.666;9.434;2023-01-29T08:49:14;1.30;99.90
15676;DHT22;7938;47.666;9.434;2023-01-29T08:51:40;1.30;99.90
15676;DHT22;7938;47.666;9.434;2023-01-29T08:54:08;1.30;99.90
15676;DHT22;7938;47.666;9.434;2023-01-29T08:56:35;1.40;99.90
15676;DHT22;7938;47.666;9.434;2023-01-29T08:59:02;1.30;99.90
15676;DHT22;7938;47.666;9.434;2023-01-29T09:01:30;1.30;99.90
15676;DHT22;7938;47.666;9.434;2023-01-29T09:03:57;1.20;99.90
15676;DHT22;7938;47.666;9.434;2023-01-29T09:06:24;1.30;99.90
15676;DHT22;7938;47.666;9.434;2023-01-29T09:08:51;1.30;99.90
15676;DHT22;7938;47.666;9.434;2023-01-29T09:11:18;1.40;99.90
15676;DHT22;7938;47.666;9.434;2023-01-29T09:13:45;1.40;99.90
15676;DHT22;7938;47.666;9.434;2023-01-29T09:16:12;1.50;99.90
15676;DHT22;7938;47.666;9.434;2023-01-29T09:18:40;1.50;99.90
15676;DHT22;7938;47.666;9.434;2023-01-29T09:21:07;1.80;99.90
15676;DHT22;7938;47.666;9.434;2023-01-29T09:23:34;1.70;99.90
15676;DHT22;7938;47.666;9.434;2023-01-29T09:26:01;1.60;99.90
15676;DHT22;7938;47.666;9.434;2023-01-29T09:28:28;1.60;99.90
15676;DHT22;7938;47.666;9.434;2023-01-29T09:30:55;1.70;99.90
15676;DHT22;7938;47.666;9.434;2023-01-29T09:33:22;1.70;99.90
15676;DHT22;7938;47.666;9.434;2023-01-29T09:35:52;1.70;99.90
15676;DHT22;7938;47.666;9.434;2023-01-29T09:38:18;1.90;99.90
15676;DHT22;7938;47.666;9.434;2023-01-29T09:40:51;2.10;99.90
15676;DHT22;7938;47.666;9.434;2023-01-29T09:43:25;2.20;99.90
15676;DHT22;7938;47.666;9.434;2023-01-29T09:45:56;2.30;99.90
15676;DHT22;7938;47.666;9.434;2023-01-29T09:48:27;2.50;99.90
15676;DHT22;7938;47.666;9.434;2023-01-29T09:51:02;2.90;99.90
15676;DHT22;7938;47.666;9.434;2023-01-29T09:53:37;3.00;99.90
15676;DHT22;7938;47.666;9.434;2023-01-29T09:56:11;3.40;99.90
15676;DHT22;7938;47.666;9.434;2023-01-29T09:58:39;3.80;99.90
15676;DHT22;7938;47.666;9.434;2023-01-29T10:01:12;3.30;99.90
15676;DHT22;7938;47.666;9.434;2023-01-29T10:04:00;3.40;99.90
15676;DHT22;7938;47.666;9.434;2023-01-29T10:06:42;3.40;99.90
15676;DHT22;7938;47.666;9.434;2023-01-29T10:09:34;3.60;99.90
15676;DHT22;7938;47.666;9.434;2023-01-29T10:12:10;4.00;99.90
15676;DHT22;7938;47.666;9.434;2023-01-29T10:14:45;4.00;99.90
15676;DHT22;7938;47.666;9.434;2023-01-29T10:17:36;4.10;99.90
15676;DHT22;7938;47.666;9.434;2023-01-29T10:20:44;3.70;99.90
15676;DHT22;7938;47.666;9.434;2023-01-29T10:23:22;3.70;99.90
15676;DHT22;7938;47.666;9.434;2023-01-29T10:25:51;3.40;99.90
15676;DHT22;7938;47.666;9.434;2023-01-29T10:28:21;3.50;99.90
15676;DHT22;7938;47.666;9.434;2023-01-29T10:30:55;2.90;99.90
15676;DHT22;7938;47.666;9.434;2023-01-29T10:33:27;2.90;99.90
15676;DHT22;7938;47.666;9.434;2023-01-29T10:35:59;2.90;99.90
15676;DHT22;7938;47.666;9.434;2023-01-29T10:38:37;3.70;99.90
15676;DHT22;7938;47.666;9.434;2023-01-29T10:41:16;2.70;99.90
15676;DHT22;7938;47.666;9.434;2023-01-29T10:43:53;2.70;99.90
15676;DHT22;7938;47.666;9.434;2023-01-29T10:46:35;2.60;99.90
15676;DHT22;7938;47.666;9.434;2023-01-29T10:49:14;2.60;99.90
15676;DHT22;7938;47.666;9.434;2023-01-29T10:52:05;2.60;99.90
15676;DHT22;7938;47.666;9.434;2023-01-29T10:54:52;2.50;99.90
15676;DHT22;7938;47.666;9.434;2023-01-29T10:57:33;2.40;99.90
15676;DHT22;7938;47.666;9.434;2023-01-29T11:00:08;2.40;99.90
15676;DHT22;7938;47.666;9.434;2023-01-29T11:02:42;2.40;99.90
15676;DHT22;7938;47.666;9.434;2023-01-29T11:05:22;2.40;99.90
15676;DHT22;7938;47.666;9.434;2023-01-29T11:08:00;2.50;99.90
15676;DHT22;7938;47.666;9.434;2023-01-29T11:10:32;2.50;99.90
15676;DHT22;7938;47.666;9.434;2023-01-29T11:13:02;2.50;99.90
15676;DHT22;7938;47.666;9.434;2023-01-29T11:15:31;2.40;99.90
15676;DHT22;7938;47.666;9.434;2023-01-29T11:18:04;2.30;99.90
15676;DHT22;7938;47.666;9.434;2023-01-29T11:20:32;2.40;99.90
15676;DHT22;7938;47.666;9.434;2023-01-29T11:22:59;2.40;99.90
15676;DHT22;7938;47.666;9.434;2023-01-29T11:25:26;2.30;99.90
15676;DHT22;7938;47.666;9.434;2023-01-29T11:27:59;2.30;99.90
15676;DHT22;7938;47.666;9.434;2023-01-29T11:30:28;3.50;99.90
15676;DHT22;7938;47.666;9.434;2023-01-29T11:33:04;2.30;99.90
15676;DHT22;7938;47.666;9.434;2023-01-29T11:35:33;2.50;99.90
15676;DHT22;7938;47.666;9.434;2023-01-29T11:38:07;2.60;99.90
15676;DHT22;7938;47.666;9.434;2023-01-29T11:40:38;2.70;99.90
15676;DHT22;7938;47.666;9.434;2023-01-29T11:43:27;2.70;99.90
15676;DHT22;7938;47.666;9.434;2023-01-29T11:45:56;2.60;99.90
15676;DHT22;7938;47.666;9.434;2023-01-29T11:48:31;2.80;99.90
15676;DHT22;7938;47.666;9.434;2023-01-29T11:50:59;3.20;99.90
15676;DHT22;7938;47.666;9.434;2023-01-29T11:53:34;3.20;99.90
15676;DHT22;7938;47.666;9.434;2023-01-29T11:56:04;3.10;99.90
15676;DHT22;7938;47.666;9.434;2023-01-29T11:58:35;3.00;99.90
15676;DHT22;7938;47.666;9.434;2023-01-29T12:01:03;2.90;99.90
15676;DHT22;7938;47.666;9.434;2023-01-29T12:03:34;2.80;99.90
15676;DHT22;7938;47.666;9.434;2023-01-29T12:06:05;2.70;99.90
15676;DHT22;7938;47.666;9.434;2023-01-29T12:08:36;2.60;99.90
15676;DHT22;7938;47.666;9.434;2023-01-29T12:11:08;2.90;99.90
15676;DHT22;7938;47.666;9.434;2023-01-29T12:13:36;3.00;99.90
15676;DHT22;7938;47.666;9.434;2023-01-29T12:16:16;3.10;99.90
15676;DHT22;7938;47.666;9.434;2023-01-29T12:18:49;3.30;99.90
15676;DHT22;7938;47.666;9.434;2023-01-29T12:21:21;3.30;99.90
15676;DHT22;7938;47.666;9.434;2023-01-29T12:23:54;3.40;99.90
15676;DHT22;7938;47.666;9.434;2023-01-29T12:26:28;3.30;99.90
15676;DHT22;7938;47.666;9.434;2023-01-29T12:29:12;3.20;99.90
15676;DHT22;7938;47.666;9.434;2023-01-29T12:31:47;3.50;99.90
15676;DHT22;7938;47.666;9.434;2023-01-29T12:34:22;3.70;99.90
15676;DHT22;7938;47.666;9.434;2023-01-29T12:36:55;3.90;99.90
15676;DHT22;7938;47.666;9.434;2023-01-29T12:39:26;4.10;99.90
15676;DHT22;7938;47.666;9.434;2023-01-29T12:41:58;4.30;99.90
15676;DHT22;7938;47.666;9.434;2023-01-29T12:44:30;4.30;99.90
15676;DHT22;7938;47.666;9.434;2023-01-29T12:47:02;4.40;99.90
15676;DHT22;7938;47.666;9.434;2023-01-29T12:49:33;4.50;99.90
15676;DHT22;7938;47.666;9.434;2023-01-29T12:52:06;4.00;99.80
15676;DHT22;7938;47.666;9.434;2023-01-29T12:54:38;3.90;99.90
15676;DHT22;7938;47.666;9.434;2023-01-29T12:57:13;4.30;99.90
15676;DHT22;7938;47.666;9.434;2023-01-29T12:59:48;4.30;99.80
15676;DHT22;7938;47.666;9.434;2023-01-29T13:02:29;3.70;99.90
15676;DHT22;7938;47.666;9.434;2023-01-29T13:05:00;3.70;99.90
15676;DHT22;7938;47.666;9.434;2023-01-29T13:07:32;3.70;99.90
15676;DHT22;7938;47.666;9.434;2023-01-29T13:10:08;3.60;99.90
15676;DHT22;7938;47.666;9.434;2023-01-29T13:12:39;3.60;99.90
15676;DHT22;7938;47.666;9.434;2023-01-29T13:15:20;3.50;99.90
15676;DHT22;7938;47.666;9.434;2023-01-29T13:17:50;3.50;99.90
15676;DHT22;7938;47.666;9.434;2023-01-29T13:20:23;3.20;99.90
15676;DHT22;7938;47.666;9.434;2023-01-29T13:22:54;2.80;99.90
15676;DHT22;7938;47.666;9.434;2023-01-29T13:25:22;2.80;99.90
15676;DHT22;7938;47.666;9.434;2023-01-29T13:27:49;3.10;99.90
15676;DHT22;7938;47.666;9.434;2023-01-29T13:30:31;3.50;99.90
15676;DHT22;7938;47.666;9.434;2023-01-29T13:33:00;3.40;99.90
15676;DHT22;7938;47.666;9.434;2023-01-29T13:35:37;3.50;99.90
15676;DHT22;7938;47.666;9.434;2023-01-29T13:38:21;3.40;99.90
15676;DHT22;7938;47.666;9.434;2023-01-29T13:40:49;3.50;99.90
15676;DHT22;7938;47.666;9.434;2023-01-29T13:43:19;3.50;99.90
15676;DHT22;7938;47.666;9.434;2023-01-29T13:45:50;3.20;99.90
15676;DHT22;7938;47.666;9.434;2023-01-29T13:48:23;3.00;99.90
15676;DHT22;7938;47.666;9.434;2023-01-29T13:50:52;3.10;99.90
15676;DHT22;7938;47.666;9.434;2023-01-29T13:53:21;3.10;99.90
15676;DHT22;7938;47.666;9.434;2023-01-29T13:55:49;2.80;99.90
15676;DHT22;7938;47.666;9.434;2023-01-29T13:58:49;2.90;99.90
15676;DHT22;7938;47.666;9.434;2023-01-29T14:01:06;2.90;99.90
15676;DHT22;7938;47.666;9.434;2023-01-29T14:03:51;2.90;99.90
15676;DHT22;7938;47.666;9.434;2023-01-29T14:06:43;2.90;99.90
15676;DHT22;7938;47.666;9.434;2023-01-29T14:12:40;2.80;99.90
15676;DHT22;7938;47.666;9.434;2023-01-29T14:15:32;2.70;99.90
15676;DHT22;7938;47.666;9.434;2023-01-29T14:18:16;2.80;99.90
15676;DHT22;7938;47.666;9.434;2023-01-29T14:21:02;2.90;99.90
15676;DHT22;7938;47.666;9.434;2023-01-29T14:23:40;3.00;99.90
15676;DHT22;7938;47.666;9.434;2023-01-29T14:26:23;3.10;99.90
15676;DHT22;7938;47.666;9.434;2023-01-29T14:29:00;3.10;99.90
15676;DHT22;7938;47.666;9.434;2023-01-29T14:31:40;3.00;99.90
15676;DHT22;7938;47.666;9.434;2023-01-29T14:34:18;3.10;99.90
15676;DHT22;7938;47.666;9.434;2023-01-29T14:36:47;3.00;99.90
15676;DHT22;7938;47.666;9.434;2023-01-29T14:39:22;2.70;99.90
15676;DHT22;7938;47.666;9.434;2023-01-29T14:41:51;2.70;99.90
15676;DHT22;7938;47.666;9.434;2023-01-29T14:50:51;2.80;99.90
15676;DHT22;7938;47.666;9.434;2023-01-29T14:53:28;2.80;99.90
15676;DHT22;7938;47.666;9.434;2023-01-29T14:56:00;2.50;99.90
15676;DHT22;7938;47.666;9.434;2023-01-29T14:58:35;2.30;99.90
15676;DHT22;7938;47.666;9.434;2023-01-29T15:01:05;2.00;99.90
15676;DHT22;7938;47.666;9.434;2023-01-29T15:03:40;1.90;99.90
15676;DHT22;7938;47.666;9.434;2023-01-29T15:06:16;1.90;99.90
15676;DHT22;7938;47.666;9.434;2023-01-29T15:08:48;1.80;99.90
15676;DHT22;7938;47.666;9.434;2023-01-29T15:11:24;1.60;99.90
15676;DHT22;7938;47.666;9.434;2023-01-29T15:14:11;1.60;99.90
15676;DHT22;7938;47.666;9.434;2023-01-29T15:16:47;1.50;99.90
15676;DHT22;7938;47.666;9.434;2023-01-29T15:19:22;1.40;99.90
15676;DHT22;7938;47.666;9.434;2023-01-29T15:22:08;1.40;99.90
15676;DHT22;7938;47.666;9.434;2023-01-29T15:24:36;1.50;99.90
15676;DHT22;7938;47.666;9.434;2023-01-29T15:27:08;1.60;99.90
15676;DHT22;7938;47.666;9.434;2023-01-29T15:29:37;1.60;99.90
15676;DHT22;7938;47.666;9.434;2023-01-29T15:32:05;1.60;99.90
15676;DHT22;7938;47.666;9.434;2023-01-29T15:34:35;1.60;99.90
15676;DHT22;7938;47.666;9.434;2023-01-29T15:37:02;1.50;99.90
15676;DHT22;7938;47.666;9.434;2023-01-29T15:39:31;1.60;99.90
15676;DHT22;7938;47.666;9.434;2023-01-29T15:42:12;1.50;99.90
15676;DHT22;7938;47.666;9.434;2023-01-29T15:44:44;1.50;99.90
15676;DHT22;7938;47.666;9.434;2023-01-29T15:47:11;1.60;99.90
15676;DHT22;7938;47.666;9.434;2023-01-29T15:49:40;1.70;99.90
15676;DHT22;7938;47.666;9.434;2023-01-29T15:52:08;1.50;99.90
15676;DHT22;7938;47.666;9.434;2023-01-29T15:54:42;1.50;99.90
15676;DHT22;7938;47.666;9.434;2023-01-29T15:57:21;1.40;99.90
15676;DHT22;7938;47.666;9.434;2023-01-29T15:59:50;1.40;99.90
15676;DHT22;7938;47.666;9.434;2023-01-29T16:02:29;1.40;99.90
15676;DHT22;7938;47.666;9.434;2023-01-29T16:04:59;1.40;99.90
15676;DHT22;7938;47.666;9.434;2023-01-29T16:07:26;1.40;99.90
15676;DHT22;7938;47.666;9.434;2023-01-29T16:09:56;1.30;99.90
15676;DHT22;7938;47.666;9.434;2023-01-29T16:12:24;1.30;99.90
15676;DHT22;7938;47.666;9.434;2023-01-29T16:14:51;1.20;99.90
15676;DHT22;7938;47.666;9.434;2023-01-29T16:17:24;1.10;99.90
15676;DHT22;7938;47.666;9.434;2023-01-29T16:19:55;0.90;99.90
15676;DHT22;7938;47.666;9.434;2023-01-29T16:22:23;0.90;99.90
15676;DHT22;7938;47.666;9.434;2023-01-29T16:24:51;0.90;99.90
15676;DHT22;7938;47.666;9.434;2023-01-29T16:27:20;0.90;99.90
15676;DHT22;7938;47.666;9.434;2023-01-29T16:29:47;1.00;99.90
15676;DHT22;7938;47.666;9.434;2023-01-29T16:32:14;0.70;99.90
15676;DHT22;7938;47.666;9.434;2023-01-29T16:34:43;0.70;99.90
15676;DHT22;7938;47.666;9.434;2023-01-29T16:37:20;0.70;99.90
15676;DHT22;7938;47.666;9.434;2023-01-29T16:39:49;0.70;99.90
15676;DHT22;7938;47.666;9.434;2023-01-29T16:42:24;0.60;99.90
15676;DHT22;7938;47.666;9.434;2023-01-29T16:44:54;0.60;99.90
15676;DHT22;7938;47.666;9.434;2023-01-29T16:47:30;0.70;99.90
15676;DHT22;7938;47.666;9.434;2023-01-29T16:49:59;0.60;99.90
15676;DHT22;7938;47.666;9.434;2023-01-29T16:52:29;0.50;99.90
15676;DHT22;7938;47.666;9.434;2023-01-29T16:55:03;0.50;99.90
15676;DHT22;7938;47.666;9.434;2023-01-29T16:57:43;0.50;99.90
15676;DHT22;7938;47.666;9.434;2023-01-29T17:00:19;0.70;99.90
15676;DHT22;7938;47.666;9.434;2023-01-29T17:02:49;0.60;99.90
15676;DHT22;7938;47.666;9.434;2023-01-29T17:05:22;0.60;99.90
15676;DHT22;7938;47.666;9.434;2023-01-29T17:07:53;0.50;99.90
15676;DHT22;7938;47.666;9.434;2023-01-29T17:10:21;0.50;99.90
15676;DHT22;7938;47.666;9.434;2023-01-29T17:12:55;0.50;99.90
15676;DHT22;7938;47.666;9.434;2023-01-29T17:15:32;0.50;99.90
15676;DHT22;7938;47.666;9.434;2023-01-29T17:18:00;0.50;99.90
15676;DHT22;7938;47.666;9.434;2023-01-29T17:20:28;0.60;99.90
15676;DHT22;7938;47.666;9.434;2023-01-29T17:22:55;0.50;99.90
15676;DHT22;7938;47.666;9.434;2023-01-29T17:25:22;0.60;99.90
15676;DHT22;7938;47.666;9.434;2023-01-29T17:27:50;0.70;99.90
15676;DHT22;7938;47.666;9.434;2023-01-29T17:30:18;0.70;99.90
15676;DHT22;7938;47.666;9.434;2023-01-29T17:32:46;0.60;99.90
15676;DHT22;7938;47.666;9.434;2023-01-29T17:35:15;0.50;99.90
15676;DHT22;7938;47.666;9.434;2023-01-29T17:37:42;0.50;99.90
15676;DHT22;7938;47.666;9.434;2023-01-29T17:42:57;0.40;99.90
15676;DHT22;7938;47.666;9.434;2023-01-29T17:45:24;0.40;99.90
15676;DHT22;7938;47.666;9.434;2023-01-29T17:47:51;0.40;99.90
15676;DHT22;7938;47.666;9.434;2023-01-29T17:52:51;0.50;99.90
15676;DHT22;7938;47.666;9.434;2023-01-29T17:55:19;0.50;99.90
15676;DHT22;7938;47.666;9.434;2023-01-29T17:57:46;0.50;99.90
15676;DHT22;7938;47.666;9.434;2023-01-29T18:00:17;0.50;99.90
15676;DHT22;7938;47.666;9.434;2023-01-29T18:02:45;0.70;99.90
15676;DHT22;7938;47.666;9.434;2023-01-29T18:05:13;0.70;99.90
15676;DHT22;7938;47.666;9.434;2023-01-29T18:07:41;0.80;99.90
15676;DHT22;7938;47.666;9.434;2023-01-29T18:10:13;0.80;99.90
15676;DHT22;7938;47.666;9.434;2023-01-29T18:12:41;0.90;99.90
15676;DHT22;7938;47.666;9.434;2023-01-29T18:15:09;1.00;99.90
15676;DHT22;7938;47.666;9.434;2023-01-29T18:17:39;0.90;99.90
15676;DHT22;7938;47.666;9.434;2023-01-29T18:20:16;1.00;99.90
15676;DHT22;7938;47.666;9.434;2023-01-29T18:22:44;0.90;99.90
15676;DHT22;7938;47.666;9.434;2023-01-29T18:25:12;0.90;99.90
15676;DHT22;7938;47.666;9.434;2023-01-29T18:27:39;0.90;99.90
15676;DHT22;7938;47.666;9.434;2023-01-29T18:30:07;0.90;99.90
15676;DHT22;7938;47.666;9.434;2023-01-29T18:32:34;0.90;99.90
15676;DHT22;7938;47.666;9.434;2023-01-29T18:35:03;0.90;99.90
15676;DHT22;7938;47.666;9.434;2023-01-29T18:37:32;0.70;99.90
15676;DHT22;7938;47.666;9.434;2023-01-29T18:40:00;0.50;99.90
15676;DHT22;7938;47.666;9.434;2023-01-29T18:42:29;0.40;99.90
15676;DHT22;7938;47.666;9.434;2023-01-29T18:44:56;0.30;99.90
15676;DHT22;7938;47.666;9.434;2023-01-29T18:47:23;0.60;99.90
15676;DHT22;7938;47.666;9.434;2023-01-29T18:49:50;0.70;99.90
15676;DHT22;7938;47.666;9.434;2023-01-29T18:52:21;0.60;99.90
15676;DHT22;7938;47.666;9.434;2023-01-29T18:54:49;0.50;99.90
15676;DHT22;7938;47.666;9.434;2023-01-29T18:57:16;0.50;99.90
15676;DHT22;7938;47.666;9.434;2023-01-29T18:59:44;0.40;99.90
15676;DHT22;7938;47.666;9.434;2023-01-29T19:02:14;0.40;99.90
15676;DHT22;7938;47.666;9.434;2023-01-29T19:04:42;0.40;99.90
15676;DHT22;7938;47.666;9.434;2023-01-29T19:07:10;0.40;99.90
15676;DHT22;7938;47.666;9.434;2023-01-29T19:09:39;0.30;99.90
15676;DHT22;7938;47.666;9.434;2023-01-29T19:12:06;0.40;99.90
15676;DHT22;7938;47.666;9.434;2023-01-29T19:14:34;0.30;99.90
15676;DHT22;7938;47.666;9.434;2023-01-29T19:17:01;0.40;99.90
15676;DHT22;7938;47.666;9.434;2023-01-29T19:19:29;0.50;99.90
15676;DHT22;7938;47.666;9.434;2023-01-29T19:21:56;0.50;99.90
15676;DHT22;7938;47.666;9.434;2023-01-29T19:24:24;0.60;99.90
15676;DHT22;7938;47.666;9.434;2023-01-29T19:26:53;0.60;99.90
15676;DHT22;7938;47.666;9.434;2023-01-29T19:29:21;0.60;99.90
15676;DHT22;7938;47.666;9.434;2023-01-29T19:31:48;0.70;99.90
15676;DHT22;7938;47.666;9.434;2023-01-29T19:34:15;0.70;99.90
15676;DHT22;7938;47.666;9.434;2023-01-29T19:36:42;0.80;99.90
15676;DHT22;7938;47.666;9.434;2023-01-29T19:39:09;0.80;99.90
15676;DHT22;7938;47.666;9.434;2023-01-29T19:41:36;0.70;99.90
15676;DHT22;7938;47.666;9.434;2023-01-29T19:44:05;0.70;99.90
15676;DHT22;7938;47.666;9.434;2023-01-29T19:46:32;0.70;99.90
15676;DHT22;7938;47.666;9.434;2023-01-29T19:48:59;0.70;99.90
15676;DHT22;7938;47.666;9.434;2023-01-29T19:51:28;0.60;99.90
15676;DHT22;7938;47.666;9.434;2023-01-29T19:53:55;0.60;99.90
15676;DHT22;7938;47.666;9.434;2023-01-29T19:56:22;0.70;99.90
15676;DHT22;7938;47.666;9.434;2023-01-29T19:58:50;0.60;99.90
15676;DHT22;7938;47.666;9.434;2023-01-29T20:01:23;0.60;99.90
15676;DHT22;7938;47.666;9.434;2023-01-29T20:03:51;0.70;99.90
15676;DHT22;7938;47.666;9.434;2023-01-29T20:06:22;0.70;99.90
15676;DHT22;7938;47.666;9.434;2023-01-29T20:08:50;0.70;99.90
15676;DHT22;7938;47.666;9.434;2023-01-29T20:11:19;0.60;99.90
15676;DHT22;7938;47.666;9.434;2023-01-29T20:13:49;0.60;99.90
15676;DHT22;7938;47.666;9.434;2023-01-29T20:16:17;0.60;99.90
15676;DHT22;7938;47.666;9.434;2023-01-29T20:18:46;0.70;99.90
15676;DHT22;7938;47.666;9.434;2023-01-29T20:21:15;0.70;99.90
15676;DHT22;7938;47.666;9.434;2023-01-29T20:23:49;0.70;99.90
15676;DHT22;7938;47.666;9.434;2023-01-29T20:26:17;0.60;99.90
15676;DHT22;7938;47.666;9.434;2023-01-29T20:28:47;0.50;99.90
15676;DHT22;7938;47.666;9.434;2023-01-29T20:31:16;0.50;99.90
15676;DHT22;7938;47.666;9.434;2023-01-29T20:33:43;0.40;99.90
15676;DHT22;7938;47.666;9.434;2023-01-29T20:36:13;0.40;99.90
15676;DHT22;7938;47.666;9.434;2023-01-29T20:38:41;0.40;99.90
15676;DHT22;7938;47.666;9.434;2023-01-29T20:41:12;0.30;99.90
15676;DHT22;7938;47.666;9.434;2023-01-29T20:43:40;0.30;99.90
15676;DHT22;7938;47.666;9.434;2023-01-29T20:46:08;0.30;99.90
15676;DHT22;7938;47.666;9.434;2023-01-29T20:48:37;0.30;99.90
15676;DHT22;7938;47.666;9.434;2023-01-29T20:51:07;0.10;99.90
15676;DHT22;7938;47.666;9.434;2023-01-29T20:53:35;0.10;99.90
15676;DHT22;7938;47.666;9.434;2023-01-29T20:56:04;0.00;99.90
15676;DHT22;7938;47.666;9.434;2023-01-29T20:58:31;0.10;99.90
15676;DHT22;7938;47.666;9.434;2023-01-29T21:00:58;0.00;99.90
15676;DHT22;7938;47.666;9.434;2023-01-29T21:03:25;0.00;99.90
15676;DHT22;7938;47.666;9.434;2023-01-29T21:05:53;-0.20;99.90
15676;DHT22;7938;47.666;9.434;2023-01-29T21:08:21;-0.30;99.90
15676;DHT22;7938;47.666;9.434;2023-01-29T21:10:51;-0.40;99.90
15676;DHT22;7938;47.666;9.434;2023-01-29T21:13:18;-0.40;99.90
15676;DHT22;7938;47.666;9.434;2023-01-29T21:15:45;-0.40;99.90
15676;DHT22;7938;47.666;9.434;2023-01-29T21:18:12;0.50;99.90
15676;DHT22;7938;47.666;9.434;2023-01-29T21:20:39;-0.30;99.90
15676;DHT22;7938;47.666;9.434;2023-01-29T21:23:07;-0.30;99.90
15676;DHT22;7938;47.666;9.434;2023-01-29T21:25:33;-0.30;99.90
15676;DHT22;7938;47.666;9.434;2023-01-29T21:28:02;-0.30;99.90
15676;DHT22;7938;47.666;9.434;2023-01-29T21:30:29;-0.30;99.90
15676;DHT22;7938;47.666;9.434;2023-01-29T21:32:56;-0.30;99.90
15676;DHT22;7938;47.666;9.434;2023-01-29T21:35:23;-0.30;99.90